Time;durP1;ratioP1;P1;durP2;ratioP2;P2;SDS_P1;SDS_P2;PMS_P1;PMS_P2;Temp;Humidity;BMP_temperature;BMP_pressure;BME280_temperature;BME280_humidity;BME280_pressure;Samples;Min_cycle;Max_cycle;Signal;HPM_P1;HPM_P2
2022/07/14 00:00:45;;;;;;;;;;;;;;;21.73;60.39;99942.94;4366855;32;20022;-89
2022/07/14 00:03:10;;;;;;;;;;;;;;;21.78;60.40;99942.63;4360609;32;19979;-90
2022/07/14 00:05:35;;;;;;;;;;;;;;;21.66;60.39;99947.00;4349424;33;19980;-91
2022/07/14 00:08:01;;;;;;;;;;;;;;;21.78;60.40;99935.50;4347827;33;19996;-93
2022/07/14 00:10:26;;;;;;;;;;;;;;;21.85;60.40;99943.84;4347723;33;20011;-93
2022/07/14 00:12:51;;;;;;;;;;;;;;;21.78;60.40;99940.81;4348211;33;19987;-94
2022/07/14 00:15:16;;;;;;;;;;;;;;;21.61;60.38;99947.37;4348124;33;20306;-93
2022/07/14 00:17:42;;;;;;;;;;;;;;;21.68;60.39;99955.69;4347359;32;20167;-94
2022/07/14 00:20:07;;;;;;;;;;;;;;;21.49;60.38;99947.41;4347506;33;20269;-92
2022/07/14 00:23:01;;;;;;;;;;;;;;;21.62;60.39;99940.25;4338314;33;19990;-93
2022/07/14 00:25:27;;;;;;;;;;;;;;;21.46;60.37;99948.50;4360132;32;20002;-93
2022/07/14 00:27:52;;;;;;;;;;;;;;;21.40;60.38;99946.31;4348719;33;20035;-92
2022/07/14 00:30:17;;;;;;;;;;;;;;;21.53;60.37;99941.81;4354680;32;20059;-91
2022/07/14 00:32:43;;;;;;;;;;;;;;;21.54;60.38;99943.50;4343085;33;20027;-91
2022/07/14 00:35:08;;;;;;;;;;;;;;;21.42;60.37;99949.69;4347875;33;19988;-92
2022/07/14 00:37:34;;;;;;;;;;;;;;;21.42;60.38;99950.53;4347570;32;20119;-91
2022/07/14 00:40:02;;;;;;;;;;;;;;;21.51;60.38;99941.03;4346779;33;19980;-93
2022/07/14 00:42:30;;;;;;;;;;;;;;;21.56;60.38;99936.28;4347462;33;19986;-91
2022/07/14 00:44:56;;;;;;;;;;;;;;;21.71;60.39;99939.56;4359821;32;20043;-92
2022/07/14 00:47:21;;;;;;;;;;;;;;;21.69;60.40;99944.97;4347481;32;19995;-92
2022/07/14 00:49:46;;;;;;;;;;;;;;;21.78;60.40;99946.13;4347382;32;20313;-92
2022/07/14 00:52:12;;;;;;;;;;;;;;;21.68;60.38;99938.00;4347977;33;20034;-92
2022/07/14 00:54:37;;;;;;;;;;;;;;;21.68;60.38;99935.34;4347487;33;19967;-91
2022/07/14 00:57:02;;;;;;;;;;;;;;;21.73;60.39;99935.84;4347537;33;20007;-92
2022/07/14 00:59:27;;;;;;;;;;;;;;;21.74;60.39;99939.31;4347368;33;20033;-92
2022/07/14 01:01:53;;;;;;;;;;;;;;;21.55;60.38;99939.87;4347193;33;19992;-92
2022/07/14 01:04:18;;;;;;;;;;;;;;;21.56;60.38;99943.38;4347367;33;20240;-92
2022/07/14 01:06:43;;;;;;;;;;;;;;;21.58;60.38;99938.81;4337786;32;19987;-94
2022/07/14 01:09:08;;;;;;;;;;;;;;;21.53;60.38;99941.81;4341071;32;20042;-93
2022/07/14 01:11:34;;;;;;;;;;;;;;;21.32;60.37;99944.22;4357145;32;20594;-92
2022/07/14 01:14:02;;;;;;;;;;;;;;;21.47;60.38;99946.69;4348052;32;19971;-92
2022/07/14 01:16:27;;;;;;;;;;;;;;;21.17;60.36;99953.25;4347903;33;19999;-93
2022/07/14 01:18:53;;;;;;;;;;;;;;;21.36;60.37;99944.84;4339716;33;19999;-93
2022/07/14 01:21:18;;;;;;;;;;;;;;;21.18;60.36;99943.50;4346805;33;19979;-93
2022/07/14 01:23:43;;;;;;;;;;;;;;;21.13;60.36;99944.69;4348518;33;20650;-93
2022/07/14 01:26:08;;;;;;;;;;;;;;;21.22;60.36;99952.91;4348428;33;19995;-93
2022/07/14 01:28:34;;;;;;;;;;;;;;;21.20;60.37;99941.59;4349123;33;20011;-93
2022/07/14 01:30:59;;;;;;;;;;;;;;;21.11;60.36;99941.31;4339494;33;19984;-94
2022/07/14 01:33:24;;;;;;;;;;;;;;;21.19;60.37;99942.53;4335369;33;20340;-94
2022/07/14 01:35:49;;;;;;;;;;;;;;;21.18;60.36;99946.16;4336459;33;20034;-94
2022/07/14 01:38:16;;;;;;;;;;;;;;;21.32;60.37;99948.69;4357498;32;19983;-94
2022/07/14 01:40:41;;;;;;;;;;;;;;;21.33;60.38;99940.63;4356293;32;19971;-93
2022/07/14 01:43:07;;;;;;;;;;;;;;;21.29;60.36;99941.78;4349321;33;20022;-94
2022/07/14 01:45:34;;;;;;;;;;;;;;;21.53;60.37;99936.50;4336296;33;20010;-95
2022/07/14 01:47:59;;;;;;;;;;;;;;;21.50;60.38;99942.00;4348487;32;20015;-95
2022/07/14 01:50:25;;;;;;;;;;;;;;;21.65;60.39;99934.72;4344788;32;20278;-95
2022/07/14 01:52:50;;;;;;;;;;;;;;;21.71;60.39;99932.47;4334175;33;20306;-95
2022/07/14 01:55:15;;;;;;;;;;;;;;;21.42;60.37;99939.09;4345873;33;20035;-92
2022/07/14 01:57:41;;;;;;;;;;;;;;;21.54;60.39;99935.53;4347244;33;20035;-92
2022/07/14 02:00:07;;;;;;;;;;;;;;;21.61;60.38;99936.78;4347310;33;19988;-92
2022/07/14 02:02:32;;;;;;;;;;;;;;;21.82;60.39;99929.00;4348150;32;19987;-94
2022/07/14 02:04:57;;;;;;;;;;;;;;;21.53;60.37;99931.22;4338501;33;20022;-94
2022/07/14 02:07:23;;;;;;;;;;;;;;;21.48;60.38;99935.97;4347021;33;20003;-95
2022/07/14 02:12:43;;;;;;;;;;;;;;;21.39;60.38;99934.88;4355413;32;20026;-94
2022/07/14 02:15:09;;;;;;;;;;;;;;;21.41;60.37;99934.75;4346776;33;20062;-94
2022/07/14 02:17:34;;;;;;;;;;;;;;;21.36;60.37;99936.91;4347384;33;20011;-94
2022/07/14 02:19:59;;;;;;;;;;;;;;;21.42;60.37;99925.84;4347739;33;19979;-93
2022/07/14 02:22:24;;;;;;;;;;;;;;;21.36;60.37;99934.25;4338540;33;20072;-94
2022/07/14 02:24:50;;;;;;;;;;;;;;;21.40;60.37;99933.91;4336288;33;19999;-94
2022/07/14 02:27:15;;;;;;;;;;;;;;;21.41;60.37;99930.28;4347511;33;20042;-92
2022/07/14 02:29:40;;;;;;;;;;;;;;;21.33;60.37;99940.63;4337003;33;19991;-93
2022/07/14 02:32:06;;;;;;;;;;;;;;;21.12;60.36;99943.00;4346459;33;19996;-93
2022/07/14 02:34:32;;;;;;;;;;;;;;;21.24;60.36;99935.97;4346755;33;20241;-93
2022/07/14 02:36:57;;;;;;;;;;;;;;;21.38;60.38;99940.28;4346616;33;19987;-95
2022/07/14 02:39:23;;;;;;;;;;;;;;;21.42;60.37;99945.22;4347175;33;20041;-94
2022/07/14 02:41:49;;;;;;;;;;;;;;;21.60;60.38;99944.84;4333280;33;20011;-93
2022/07/14 02:44:14;;;;;;;;;;;;;;;21.39;60.38;99948.09;4352119;32;20054;-93
2022/07/14 02:46:39;;;;;;;;;;;;;;;21.37;60.38;99944.72;4334599;33;20397;-93
2022/07/14 02:49:05;;;;;;;;;;;;;;;21.47;60.38;99946.69;4340841;33;19994;-93
2022/07/14 02:52:02;;;;;;;;;;;;;;;;;;;;;
2022/07/14 02:54:27;;;;;;;;;;;;;;;21.54;60.38;99948.78;4358125;32;35863;-93
2022/07/14 02:56:53;;;;;;;;;;;;;;;21.66;60.38;99947.84;4348662;32;20007;-93
2022/07/14 02:59:18;;;;;;;;;;;;;;;21.72;60.39;99943.91;4348690;33;19990;-92
2022/07/14 03:01:43;;;;;;;;;;;;;;;21.48;60.38;99951.88;4337764;33;19992;-94
2022/07/14 03:04:09;;;;;;;;;;;;;;;21.52;60.38;99955.97;4334717;33;19988;-94
2022/07/14 03:06:35;;;;;;;;;;;;;;;21.41;60.37;99953.28;4343427;33;19995;-93
2022/07/14 03:09:00;;;;;;;;;;;;;;;21.52;60.37;99961.28;4349717;33;19979;-93
2022/07/14 03:11:25;;;;;;;;;;;;;;;21.69;60.38;99958.22;4350130;33;20032;-92
2022/07/14 03:13:50;;;;;;;;;;;;;;;21.55;60.38;99957.59;4351128;33;20011;-95
2022/07/14 03:16:16;;;;;;;;;;;;;;;21.51;60.38;99962.22;4356217;32;19984;-95
2022/07/14 03:18:41;;;;;;;;;;;;;;;21.48;60.38;99954.53;4362838;32;20254;-93
2022/07/14 03:21:10;;;;;;;;;;;;;;;21.59;60.38;99951.94;4347561;33;19976;-94
2022/07/14 03:23:35;;;;;;;;;;;;;;;21.46;60.37;99959.09;4349463;33;20075;-95
2022/07/14 03:26:01;;;;;;;;;;;;;;;21.56;60.38;99960.12;4339375;33;19984;-94
2022/07/14 03:28:26;;;;;;;;;;;;;;;21.40;60.37;99954.25;4336710;33;20071;-93
2022/07/14 03:30:55;;;;;;;;;;;;;;;21.60;60.38;99950.97;4336518;33;20242;-92
2022/07/14 03:33:20;;;;;;;;;;;;;;;21.50;60.37;99952.59;4360883;32;20054;-93
2022/07/14 03:35:46;;;;;;;;;;;;;;;21.63;60.39;99950.75;4348216;33;19991;-92
2022/07/14 03:38:12;;;;;;;;;;;;;;;21.56;60.39;99951.31;4336426;33;20090;-94
2022/07/14 03:40:37;;;;;;;;;;;;;;;21.65;60.39;99950.63;4341338;33;20349;-93
2022/07/14 03:43:31;;;;;;;;;;;;;;;21.70;60.39;99951.97;4339139;33;19995;-94
2022/07/14 03:45:56;;;;;;;;;;;;;;;21.98;60.40;99949.88;4331134;33;20002;-94
2022/07/14 03:48:21;;;;;;;;;;;;;;;21.95;60.40;99958.91;4349895;33;19983;-93
2022/07/14 03:50:47;;;;;;;;;;;;;;;21.94;60.40;99959.88;4349614;32;19979;-95
2022/07/14 03:53:12;;;;;;;;;;;;;;;21.74;60.39;99961.38;4339281;32;20000;-95
2022/07/14 03:55:38;;;;;;;;;;;;;;;21.81;60.39;99955.63;4349416;32;20328;-92
2022/07/14 03:58:03;;;;;;;;;;;;;;;21.55;60.38;99966.38;4348200;33;20361;-93
2022/07/14 04:00:28;;;;;;;;;;;;;;;21.53;60.38;99964.78;4347792;33;20010;-92
2022/07/14 04:02:54;;;;;;;;;;;;;;;21.63;60.39;99957.84;4348010;33;20022;-92
2022/07/14 04:05:19;;;;;;;;;;;;;;;21.64;60.38;99954.25;4347577;33;19999;-94
2022/07/14 04:07:44;;;;;;;;;;;;;;;21.81;60.39;99955.63;4343454;32;20312;-93
2022/07/14 04:10:10;;;;;;;;;;;;;;;21.74;60.39;99963.19;4334152;33;19998;-92
2022/07/14 04:12:35;;;;;;;;;;;;;;;22.14;60.41;99953.09;4356975;32;19999;-91
2022/07/14 04:15:01;;;;;;;;;;;;;;;22.09;60.41;99960.56;4360371;32;20034;-91
2022/07/14 04:17:26;;;;;;;;;;;;;;;22.20;60.41;99957.06;4348238;33;19998;-92
2022/07/14 04:19:51;;;;;;;;;;;;;;;22.24;60.42;99959.41;4343756;33;20006;-88
2022/07/14 04:22:16;;;;;;;;;;;;;;;22.15;60.40;99943.34;4332859;33;20250;-90
2022/07/14 04:24:41;;;;;;;;;;;;;;;22.24;60.41;99948.78;4345759;33;20047;-90
2022/07/14 04:27:07;;;;;;;;;;;;;;;22.42;60.43;99950.97;4347672;33;19998;-91
2022/07/14 04:29:32;;;;;;;;;;;;;;;22.49;60.43;99952.19;4351002;32;20092;-90
2022/07/14 04:31:57;;;;;;;;;;;;;;;22.52;60.42;99947.47;4349661;33;20022;-90
2022/07/14 04:34:23;;;;;;;;;;;;;;;22.66;60.44;99941.06;4360407;32;20038;-91
2022/07/14 04:36:48;;;;;;;;;;;;;;;22.92;60.45;99934.56;4347638;33;19987;-91
2022/07/14 04:39:13;;;;;;;;;;;;;;;23.14;60.45;99941.63;4347805;32;19984;-91
2022/07/14 04:41:38;;;;;;;;;;;;;;;23.15;60.46;99937.16;4347448;33;20340;-91
2022/07/14 04:44:04;;;;;;;;;;;;;;;23.30;60.47;99935.94;4341256;33;20031;-95
2022/07/14 04:46:29;;;;;;;;;;;;;;;23.46;60.47;99939.03;4333247;33;20003;-92
2022/07/14 04:54:22;;;;;;;;;;;;;;;24.20;60.52;99931.06;4358280;32;20379;-91
2022/07/14 04:56:48;;;;;;;;;;;;;;;24.32;60.52;99935.34;4349667;33;19991;-92
2022/07/14 04:59:13;;;;;;;;;;;;;;;24.43;60.52;99927.28;4356199;33;20018;-92
2022/07/14 05:01:38;;;;;;;;;;;;;;;24.42;60.53;99930.94;4347511;33;20042;-92
2022/07/14 05:04:03;;;;;;;;;;;;;;;24.35;60.51;99928.91;4347034;33;20058;-90
2022/07/14 05:06:29;;;;;;;;;;;;;;;24.36;60.53;99933.25;4338700;33;20261;-91
2022/07/14 05:08:54;;;;;;;;;;;;;;;24.33;60.52;99928.19;4345035;33;20050;-90
2022/07/14 05:11:19;;;;;;;;;;;;;;;24.38;60.52;99926.84;4346978;33;20291;-90
2022/07/14 05:13:45;;;;;;;;;;;;;;;24.54;60.53;99933.47;4359460;32;20019;-90
2022/07/14 05:16:10;;;;;;;;;;;;;;;24.70;60.54;99934.69;4335508;32;20654;-89
2022/07/14 05:18:35;;;;;;;;;;;;;;;24.70;60.54;99941.81;4346908;33;20042;-90
2022/07/14 05:21:00;;;;;;;;;;;;;;;24.80;60.54;99940.03;4336106;33;19983;-89
2022/07/14 05:23:26;;;;;;;;;;;;;;;25.16;60.56;99943.09;4347047;33;20007;-90
2022/07/14 05:25:51;;;;;;;;;;;;;;;25.38;60.58;99941.03;4346731;33;20336;-90
2022/07/14 05:28:16;;;;;;;;;;;;;;;25.60;60.58;99936.41;4346533;33;19999;-90
2022/07/14 05:30:41;;;;;;;;;;;;;;;25.70;60.59;99937.28;4350983;32;20059;-90
2022/07/14 05:33:07;;;;;;;;;;;;;;;25.69;60.59;99939.09;4344043;33;20050;-90
2022/07/14 05:35:33;;;;;;;;;;;;;;;25.87;60.60;99936.56;4359009;32;19994;-90
2022/07/14 05:37:58;;;;;;;;;;;;;;;25.94;60.61;99931.50;4346644;33;20313;-92
2022/07/14 05:40:24;;;;;;;;;;;;;;;26.10;60.61;99931.75;4358936;32;19996;-89
2022/07/14 05:42:50;;;;;;;;;;;;;;;26.17;60.62;99929.34;4358545;32;19987;-89
2022/07/14 05:45:15;;;;;;;;;;;;;;;26.34;60.62;99925.09;4358533;32;20041;-89
2022/07/14 05:47:42;;;;;;;;;;;;;;;26.49;60.64;99918.31;4346205;33;20011;-89
2022/07/14 05:50:07;;;;;;;;;;;;;;;26.71;60.65;99915.25;4345912;33;20007;-88
2022/07/14 05:52:33;;;;;;;;;;;;;;;26.88;60.65;99921.62;4346171;33;20047;-89
2022/07/14 05:54:59;;;;;;;;;;;;;;;27.06;60.66;99917.22;4358310;32;19975;-89
2022/07/14 05:57:24;;;;;;;;;;;;;;;27.08;60.66;99912.56;4346351;32;19987;-89
2022/07/14 05:59:49;;;;;;;;;;;;;;;27.26;60.67;99907.22;4346310;33;20018;-89
2022/07/14 06:02:14;;;;;;;;;;;;;;;27.38;60.67;99911.34;4346230;33;20050;-89
2022/07/14 06:04:40;;;;;;;;;;;;;;;27.44;60.68;99905.38;4358638;32;20360;-89
2022/07/14 06:07:06;;;;;;;;;;;;;;;27.57;60.68;99896.97;4346031;33;20325;-89
2022/07/14 06:09:34;;;;;;;;;;;;;;;27.63;60.68;99898.22;4345997;33;20054;-89
2022/07/14 06:11:59;;;;;;;;;;;;;;;27.74;60.68;99898.00;4345944;33;20361;-88
2022/07/14 06:14:24;;;;;;;;;;;;;;;27.81;60.70;99897.19;4345882;32;20010;-89
2022/07/14 06:16:50;;;;;;;;;;;;;;;27.87;60.70;99902.91;4345934;33;19995;-88
2022/07/14 06:19:15;;;;;;;;;;;;;;;27.96;60.70;99899.31;4358270;32;20014;-89
2022/07/14 06:21:40;;;;;;;;;;;;;;;27.97;60.71;99901.84;4347519;33;20009;-88
2022/07/14 06:24:05;;;;;;;;;;;;;;;28.04;60.71;99891.34;4346097;33;19995;-89
2022/07/14 06:26:31;;;;;;;;;;;;;;;28.26;60.72;99900.72;4345812;33;20274;-88
2022/07/14 06:28:56;;;;;;;;;;;;;;;28.12;60.71;99894.91;4347990;33;20007;-88
2022/07/14 06:31:21;;;;;;;;;;;;;;;28.24;60.72;99895.47;4348646;33;19992;-89
2022/07/14 06:33:46;;;;;;;;;;;;;;;28.26;60.72;99900.72;4348896;33;20348;-88
2022/07/14 06:36:12;;;;;;;;;;;;;;;28.53;60.74;99897.00;4362417;32;20310;-88
2022/07/14 06:38:37;;;;;;;;;;;;;;;28.58;60.73;99889.31;4368575;32;19987;-88
2022/07/14 06:41:02;;;;;;;;;;;;;;;28.79;60.75;99891.56;4362829;32;20017;-87
2022/07/14 06:43:27;;;;;;;;;;;;;;;29.02;60.76;99888.16;4360104;32;19995;-88
2022/07/14 06:45:53;;;;;;;;;;;;;;;29.24;60.78;99883.16;4347466;33;20233;-88
2022/07/14 06:48:18;;;;;;;;;;;;;;;29.42;60.78;99883.84;4360010;32;20014;-88
2022/07/14 06:50:44;;;;;;;;;;;;;;;29.70;60.79;99884.38;4360130;32;20002;-87
2022/07/14 06:53:09;;;;;;;;;;;;;;;29.94;60.80;99880.84;4360172;32;20280;-88
2022/07/14 06:55:34;;;;;;;;;;;;;;;30.31;60.82;99874.06;4360105;32;20029;-89
2022/07/14 06:58:00;;;;;;;;;;;;;;;30.57;60.83;99873.81;4347732;33;20006;-88
2022/07/14 07:00:25;;;;;;;;;;;;;;;30.58;60.83;99875.47;4347701;33;20067;-90
2022/07/14 07:02:50;;;;;;;;;;;;;;;30.79;60.85;99873.06;4360118;32;19983;-89
2022/07/14 07:08:00;;;;;;;;;;;;;;;31.21;60.87;99883.38;4358429;32;19990;-89
2022/07/14 07:10:25;;;;;;;;;;;;;;;31.28;60.87;99884.38;4359969;32;20058;-88
2022/07/14 07:12:51;;;;;;;;;;;;;;;31.23;60.86;99877.84;4359716;32;20046;-88
2022/07/14 07:15:16;;;;;;;;;;;;;;;31.45;60.87;99875.12;4348807;33;20234;-88
2022/07/14 07:17:41;;;;;;;;;;;;;;;31.43;60.88;99866.41;4347479;33;20003;-87
2022/07/14 07:20:07;;;;;;;;;;;;;;;31.28;60.88;99870.09;4348826;33;20071;-88
2022/07/14 07:22:32;;;;;;;;;;;;;;;31.12;60.87;99871.00;4360063;32;20276;-88
2022/07/14 07:24:57;;;;;;;;;;;;;;;31.31;60.88;99875.09;4359847;32;20010;-88
2022/07/14 07:27:22;;;;;;;;;;;;;;;31.36;60.88;99865.47;4359838;32;19987;-89
2022/07/14 07:29:48;;;;;;;;;;;;;;;31.63;60.89;99860.53;4359347;32;20019;-90
2022/07/14 07:32:13;;;;;;;;;;;;;;;31.61;60.89;99870.66;4347238;33;20019;-89
2022/07/14 07:34:38;;;;;;;;;;;;;;;31.63;60.90;99860.53;4359553;32;20327;-89
2022/07/14 07:37:04;;;;;;;;;;;;;;;31.76;60.90;99863.47;4348588;33;20003;-89
2022/07/14 07:39:29;;;;;;;;;;;;;;;31.68;60.89;99861.66;4346587;32;19980;-89
2022/07/14 07:41:57;;;;;;;;;;;;;;;31.80;60.90;99856.72;4359540;32;19998;-88
2022/07/14 07:44:23;;;;;;;;;;;;;;;31.96;60.91;99855.72;4358143;32;19988;-88
2022/07/14 07:46:48;;;;;;;;;;;;;;;31.91;60.91;99848.16;4334511;33;20292;-89
2022/07/14 07:49:13;;;;;;;;;;;;;;;31.97;60.90;99857.38;4348622;33;20027;-88
2022/07/14 07:51:38;;;;;;;;;;;;;;;31.93;60.90;99853.38;4356956;32;19992;-88
2022/07/14 07:54:05;;;;;;;;;;;;;;;31.83;60.90;99850.13;4347246;33;20038;-88
2022/07/14 07:56:30;;;;;;;;;;;;;;;31.82;60.90;99848.44;4348515;33;20334;-88
2022/07/14 07:58:56;;;;;;;;;;;;;;;31.98;60.91;99846.44;4357821;32;20010;-89
2022/07/14 08:01:21;;;;;;;;;;;;;;;32.29;60.93;99840.87;4357251;32;20027;-88
2022/07/14 08:03:46;;;;;;;;;;;;;;;32.49;60.93;99840.31;4345885;33;19972;-88
2022/07/14 08:06:12;;;;;;;;;;;;;;;32.44;60.94;99835.50;4347327;33;20341;-88
2022/07/14 08:08:37;;;;;;;;;;;;;;;32.41;60.93;99841.22;4348881;33;19989;-88
2022/07/14 08:11:02;;;;;;;;;;;;;;;32.60;60.94;99840.66;4348966;33;20317;-89
2022/07/14 08:13:28;;;;;;;;;;;;;;;32.82;60.96;99838.03;4358010;32;20018;-88
2022/07/14 08:15:54;;;;;;;;;;;;;;;32.72;60.94;99830.22;4346737;33;20385;-89
2022/07/14 08:18:19;;;;;;;;;;;;;;;33.07;60.95;99827.69;4361209;32;19999;-89
2022/07/14 08:20:44;;;;;;;;;;;;;;;33.28;60.97;99830.41;4366374;32;19982;-89
2022/07/14 08:23:09;;;;;;;;;;;;;;;33.41;60.98;99837.81;4359116;32;19995;-89
2022/07/14 08:25:35;;;;;;;;;;;;;;;33.57;60.99;99827.56;4344366;33;20342;-88
2022/07/14 08:28:00;;;;;;;;;;;;;;;33.74;61.00;99825.41;4358020;32;20035;-89
2022/07/14 08:30:25;;;;;;;;;;;;;;;33.47;60.98;99824.38;4356890;32;20023;-88
2022/07/14 08:32:51;;;;;;;;;;;;;;;33.69;60.99;99822.47;4357063;32;20020;-89
2022/07/14 08:35:17;;;;;;;;;;;;;;;33.97;61.00;99816.25;4348202;33;20362;-89
2022/07/14 08:37:42;;;;;;;;;;;;;;;34.04;61.01;99819.81;4356950;32;20019;-88
2022/07/14 08:40:08;;;;;;;;;;;;;;;33.99;61.01;99815.00;4358684;32;20022;-90
2022/07/14 08:42:34;;;;;;;;;;;;;;;34.13;61.02;99805.94;4356902;32;20325;-89
2022/07/14 08:44:59;;;;;;;;;;;;;;;34.35;61.03;99806.72;4346175;33;20043;-89
2022/07/14 08:47:25;;;;;;;;;;;;;;;34.56;61.03;99803.03;4359314;32;20247;-89
2022/07/14 08:49:50;;;;;;;;;;;;;;;34.57;61.03;99806.59;4346683;32;19991;-89
2022/07/14 08:52:15;;;;;;;;;;;;;;;34.50;61.03;99803.84;4345696;33;20025;-89
2022/07/14 08:54:41;;;;;;;;;;;;;;;34.63;61.04;99798.47;4346918;32;20363;-89
2022/07/14 08:57:06;;;;;;;;;;;;;;;34.71;61.05;99802.87;4346533;33;19988;-89
2022/07/14 08:59:32;;;;;;;;;;;;;;;34.89;61.05;99807.72;4359179;32;20019;-89
2022/07/14 09:01:57;;;;;;;;;;;;;;;34.88;61.05;99789.84;4359263;32;20289;-89
2022/07/14 09:04:22;;;;;;;;;;;;;;;35.06;61.06;99793.63;4359283;32;20018;-89
2022/07/14 09:06:50;;;;;;;;;;;;;;;35.03;61.06;99794.03;4346717;33;19988;-89
2022/07/14 09:09:17;;;;;;;;;;;;;;;35.27;61.07;99789.03;4359052;32;20005;-89
2022/07/14 09:11:53;;;;;;;;;;;;;;;35.27;61.08;99783.62;4359270;32;19993;-89
2022/07/14 09:14:19;;;;;;;;;;;;;;;35.42;61.08;99792.38;4346528;32;20067;-89
2022/07/14 09:16:44;;;;;;;;;;;;;;;35.55;61.08;99781.56;4359198;32;19999;-90
2022/07/14 09:19:10;;;;;;;;;;;;;;;35.66;61.09;99774.66;4359087;32;20293;-89
2022/07/14 09:21:40;;;;;;;;;;;;;;;35.76;61.09;99769.66;4324379;33;20027;-89
2022/07/14 09:24:08;;;;;;;;;;;;;;;35.52;61.08;99779.28;4346920;32;19999;-88
2022/07/14 09:26:46;;;;;;;;;;;;;;;35.42;61.08;99772.59;4359123;32;20110;-90
2022/07/14 09:29:18;;;;;;;;;;;;;;;35.61;61.09;99764.47;4359262;32;19994;-89
2022/07/14 09:31:43;;;;;;;;;;;;;;;35.83;61.10;99765.06;4359037;32;19983;-90
2022/07/14 09:34:08;;;;;;;;;;;;;;;35.72;61.09;99764.84;4359210;32;20034;-89
2022/07/14 09:36:34;;;;;;;;;;;;;;;35.53;61.08;99772.81;4358645;32;19983;-90
2022/07/14 09:39:00;;;;;;;;;;;;;;;35.57;61.09;99760.53;4346388;32;20090;-89
2022/07/14 09:41:26;;;;;;;;;;;;;;;35.58;61.09;99770.31;4358876;32;20290;-88
2022/07/14 09:44:05;;;;;;;;;;;;;;;35.63;61.09;99758.84;4347763;33;19994;-90
2022/07/14 09:46:49;;;;;;;;;;;;;;;35.75;61.10;99759.03;4358901;32;19987;-89
2022/07/14 09:49:14;;;;;;;;;;;;;;;35.84;61.10;99758.63;4348191;33;19984;-89
2022/07/14 09:52:16;;;;;;;;;;;;;;;36.17;61.12;99758.47;4347991;33;20277;-89
2022/07/14 09:54:44;;;;;;;;;;;;;;;36.11;61.11;99756.66;4346136;33;19999;-89
2022/07/14 09:57:12;;;;;;;;;;;;;;;36.24;61.12;99745.75;4348737;33;19987;-89
2022/07/14 09:59:56;;;;;;;;;;;;;;;36.26;61.12;99743.66;4351116;33;20120;-89
2022/07/14 10:02:22;;;;;;;;;;;;;;;36.20;61.12;99747.25;4354676;33;20043;-89
2022/07/14 10:04:48;;;;;;;;;;;;;;;36.21;61.12;99748.06;4360547;32;20010;-90
2022/07/14 10:07:13;;;;;;;;;;;;;;;36.03;61.11;99740.63;4360194;32;20003;-90
2022/07/14 10:09:39;;;;;;;;;;;;;;;36.27;61.13;99745.31;4360244;32;20047;-90
2022/07/14 10:12:05;;;;;;;;;;;;;;;36.15;61.11;99749.75;4360357;32;20005;-89
2022/07/14 10:14:30;;;;;;;;;;;;;;;36.16;61.12;99743.28;4347686;33;20356;-89
2022/07/14 10:16:55;;;;;;;;;;;;;;;36.40;61.13;99732.75;4360399;32;20044;-89
2022/07/14 10:19:20;;;;;;;;;;;;;;;36.51;61.12;99746.47;4360051;32;20010;-89
2022/07/14 10:21:46;;;;;;;;;;;;;;;36.62;61.14;99728.66;4360233;32;20159;-89
2022/07/14 10:24:12;;;;;;;;;;;;;;;36.83;61.14;99713.94;4360344;32;20023;-89
2022/07/14 10:26:37;;;;;;;;;;;;;;;36.80;61.15;99719.81;4347642;33;19995;-89
2022/07/14 10:29:04;;;;;;;;;;;;;;;36.82;61.14;99723.97;4347744;33;20050;-89
2022/07/14 10:31:33;;;;;;;;;;;;;;;37.00;61.15;99714.25;4359968;32;20002;-89
2022/07/14 10:34:17;;;;;;;;;;;;;;;36.91;61.15;99710.94;4347762;32;20007;-90
2022/07/14 10:36:43;;;;;;;;;;;;;;;36.88;61.15;99704.09;4360349;32;20471;-90
2022/07/14 10:39:27;;;;;;;;;;;;;;;37.11;61.16;99710.78;4347776;33;19984;-90
2022/07/14 10:42:11;;;;;;;;;;;;;;;37.18;61.17;99703.44;4348981;33;19994;-89
2022/07/14 10:44:36;;;;;;;;;;;;;;;37.24;61.16;99696.28;4349101;33;19983;-89
2022/07/14 10:47:08;;;;;;;;;;;;;;;37.14;61.16;99707.62;4347464;33;20006;-89
2022/07/14 10:49:53;;;;;;;;;;;;;;;37.16;61.16;99702.84;4347591;32;19987;-89
2022/07/14 10:52:25;;;;;;;;;;;;;;;37.19;61.17;99697.78;4327226;33;19999;-90
2022/07/14 10:55:07;;;;;;;;;;;;;;;37.54;61.18;99690.97;4349229;33;20383;-90
2022/07/14 10:57:33;;;;;;;;;;;;;;;38.05;61.20;99685.16;4349332;33;19998;-90
2022/07/14 10:59:59;;;;;;;;;;;;;;;38.18;61.21;99681.47;4360154;32;19984;-90
2022/07/14 11:02:24;;;;;;;;;;;;;;;38.13;61.20;99676.72;4360179;32;20348;-89
2022/07/14 11:05:06;;;;;;;;;;;;;;;38.21;61.21;99675.56;4349015;33;20016;-91
2022/07/14 11:07:46;;;;;;;;;;;;;;;38.32;61.21;99675.59;4360075;32;20360;-89
2022/07/14 11:10:11;;;;;;;;;;;;;;;38.23;61.20;99666.13;4348857;33;20375;-89
2022/07/14 11:12:36;;;;;;;;;;;;;;;38.30;61.21;99668.75;4348693;33;19991;-89
2022/07/14 11:15:01;;;;;;;;;;;;;;;38.48;61.22;99662.41;4359113;32;20006;-90
2022/07/14 11:17:33;;;;;;;;;;;;;;;38.59;61.23;99651.56;4359981;32;19991;-90
2022/07/14 11:19:58;;;;;;;;;;;;;;;38.60;61.23;99658.66;4348898;33;20001;-90
2022/07/14 11:22:24;;;;;;;;;;;;;;;38.41;61.22;99654.38;4347576;33;19991;-90
2022/07/14 11:24:56;;;;;;;;;;;;;;;38.47;61.22;99656.16;4347404;33;20285;-89
2022/07/14 11:27:22;;;;;;;;;;;;;;;38.47;61.22;99650.72;4360116;32;19995;-90
2022/07/14 11:29:47;;;;;;;;;;;;;;;38.41;61.23;99657.09;4360042;32;19997;-90
2022/07/14 11:32:27;;;;;;;;;;;;;;;37.86;61.19;99651.78;4348006;33;20313;-89
2022/07/14 11:37:53;;;;;;;;;;;;;;;38.14;61.21;99644.91;4359416;32;19994;-90
2022/07/14 11:40:37;;;;;;;;;;;;;;;37.93;61.20;99628.06;4338807;33;19975;-90
2022/07/14 11:43:22;;;;;;;;;;;;;;;37.81;61.19;99639.91;4357470;33;20023;-89
2022/07/14 11:45:54;;;;;;;;;;;;;;;37.92;61.18;99641.88;4350717;33;20376;-89
2022/07/14 11:48:20;;;;;;;;;;;;;;;38.03;61.20;99638.34;4348581;33;20355;-89
2022/07/14 11:50:45;;;;;;;;;;;;;;;37.96;61.20;99630.31;4359550;32;19979;-89
2022/07/14 11:53:10;;;;;;;;;;;;;;;38.04;61.20;99640.00;4347181;32;20274;-90
2022/07/14 11:55:37;;;;;;;;;;;;;;;37.93;61.20;99632.66;4347006;33;20035;-90
2022/07/14 11:58:03;;;;;;;;;;;;;;;37.98;61.20;99630.06;4347116;32;20543;-90
2022/07/14 12:00:28;;;;;;;;;;;;;;;37.77;61.19;99625.97;4346895;33;20031;-89
2022/07/14 12:03:00;;;;;;;;;;;;;;;37.71;61.19;99626.84;4359700;32;19987;-89
2022/07/14 12:05:25;;;;;;;;;;;;;;;37.59;61.19;99632.19;4359287;32;20020;-89
2022/07/14 12:07:51;;;;;;;;;;;;;;;37.54;61.18;99623.09;4347017;33;20376;-90
2022/07/14 12:10:32;;;;;;;;;;;;;;;37.77;61.20;99624.06;4359471;32;20017;-90
2022/07/14 12:12:58;;;;;;;;;;;;;;;37.61;61.19;99612.97;4348414;33;19985;-90
2022/07/14 12:15:23;;;;;;;;;;;;;;;37.51;61.19;99613.50;4359400;32;20345;-89
2022/07/14 12:17:49;;;;;;;;;;;;;;;37.82;61.19;99609.78;4347063;33;20052;-90
2022/07/14 12:20:14;;;;;;;;;;;;;;;37.75;61.20;99619.94;4359720;32;19995;-89
2022/07/14 12:22:43;;;;;;;;;;;;;;;37.75;61.20;99615.31;4348619;33;20302;-91
2022/07/14 12:25:28;;;;;;;;;;;;;;;37.73;61.18;99612.00;4359460;32;20000;-89
2022/07/14 12:27:54;;;;;;;;;;;;;;;37.89;61.20;99605.13;4348448;33;20328;-89
2022/07/14 12:30:20;;;;;;;;;;;;;;;38.15;61.21;99597.63;4359644;32;19986;-90
2022/07/14 12:32:45;;;;;;;;;;;;;;;38.20;61.21;99587.75;4359451;32;19968;-89
2022/07/14 12:35:10;;;;;;;;;;;;;;;38.24;61.21;99599.00;4359327;32;19995;-90
2022/07/14 12:37:36;;;;;;;;;;;;;;;37.97;61.20;99598.53;4359416;32;20034;-90
2022/07/14 12:40:01;;;;;;;;;;;;;;;37.96;61.20;99599.59;4359243;32;20027;-90
2022/07/14 12:42:26;;;;;;;;;;;;;;;38.08;61.21;99598.53;4348441;33;19967;-90
2022/07/14 12:45:07;;;;;;;;;;;;;;;38.14;61.21;99585.12;4358818;32;19995;-90
2022/07/14 12:47:46;;;;;;;;;;;;;;;38.18;61.21;99584.44;4358843;32;20336;-89
2022/07/14 12:50:22;;;;;;;;;;;;;;;37.89;61.19;99583.38;4346955;32;19983;-90
2022/07/14 12:52:54;;;;;;;;;;;;;;;37.79;61.19;99583.09;4347029;32;19998;-90
2022/07/14 12:55:44;;;;;;;;;;;;;;;37.87;61.20;99576.53;4346781;33;19991;-89
2022/07/14 12:58:09;;;;;;;;;;;;;;;38.08;61.21;99571.38;4334868;33;19991;-89
2022/07/14 13:00:36;;;;;;;;;;;;;;;38.06;61.20;99570.78;4359489;32;20002;-89